Flight Information

DEPARTURE
BOZEMAN, MT
Elevation:
4473
Runways:
11/29 - 5050x75 - ASPH-G
11G/29G - 2802x80 - TURF-G
3/21 - 2650x75 - ASPH-G
12/30 - 8994x150 - ASPH-G
Tower:
118.2
DESTINATION
,
Elevation:
TPA:
1000 (est.)


6274.3 NM75° True-16° Var58° HDG

Flight Plan:
(click to file on line)

1. Type
2. Aircraft Identification
3. Aircraft Type / Special Equipment
4. True Airspeed
kts
5. Departure Airport
(ICAO code)
6. Arriving Airport
(ICAO code)
7. Cruising Altitude
ft
8. Alternate Airport
(ICAO code)
9. Route of Flight
10. Remarks


00:00:00 Departure ATIS: Destination ATIS:

Clearance Limit:
Route:
Altitude: Expect in minutes
Frequency:
Transponder: (7500 Hijack / 7600 Lost Comms / 7700 Emergency)


KBZN 101456Z 07006KT 6SM -RA BR FEW040 SCT047 OVC075 12/10 A3020 RMK AO2 RAB13 SLP205 P0004 60004 T01220100 51068
Time: 2020-07-10T14:56:00Z
1594395054
Winds: 70 @ 6 kts
Visibility: 6.0 sm
Clouds (AGL): FEW 4000
SCT 4700
OVC 7500
Temperature: 12.2 C
Dew Point: 10.0 C
Pressure: 30.200787 in Hgbr


Notes:

Data extracted from FAA Digital Chart Supplement. Effective: 0901Z Thursday, May 21, 2020 to 0901Z Thursday, Jul 16, 2020
Current ATIS data is provided courtisy of PilotEdge.